createdAt,value
2019-03-06T00:00:10.933Z,13.47
2019-03-06T00:02:44.247Z,13.33
2019-03-06T00:05:16.006Z,18.10
2019-03-06T00:07:47.793Z,24.77
2019-03-06T00:10:24.296Z,15.70
2019-03-06T00:12:56.169Z,21.93
2019-03-06T00:15:27.854Z,29.47
2019-03-06T00:17:59.644Z,23.07
2019-03-06T00:20:31.446Z,15.47
2019-03-06T00:23:03.138Z,13.17
2019-03-06T00:25:34.805Z,10.90
2019-03-06T00:28:06.850Z,11.03
2019-03-06T00:30:38.632Z,10.00
2019-03-06T00:33:10.618Z,11.87
2019-03-06T00:35:45.170Z,25.77
2019-03-06T00:38:16.887Z,23.17
2019-03-06T00:40:53.682Z,17.10
2019-03-06T00:43:25.360Z,13.33
2019-03-06T00:45:56.959Z,12.40
2019-03-06T00:48:28.604Z,18.37
2019-03-06T00:51:00.256Z,23.33
2019-03-06T00:53:31.975Z,14.37
2019-03-06T00:56:03.829Z,10.87
2019-03-06T00:58:35.730Z,16.00
2019-03-06T01:01:07.610Z,11.63
2019-03-06T01:03:39.342Z,23.33
2019-03-06T01:06:11.008Z,13.83
2019-03-06T01:08:43.046Z,12.20
2019-03-06T01:11:15.667Z,15.20
2019-03-06T01:13:47.380Z,20.37
2019-03-06T01:16:19.031Z,15.37
2019-03-06T01:18:50.764Z,12.07
2019-03-06T01:21:23.384Z,12.23
2019-03-06T01:23:55.131Z,12.33
2019-03-06T01:26:26.865Z,11.17
2019-03-06T01:28:58.601Z,11.50
2019-03-06T01:31:30.358Z,21.60
2019-03-06T01:34:29.694Z,13.83
2019-03-06T01:37:22.483Z,16.70
2019-03-06T01:40:25.138Z,12.93
2019-03-06T01:43:08.717Z,13.27
2019-03-06T01:45:40.618Z,13.70
2019-03-06T01:48:12.343Z,10.70
2019-03-06T01:50:43.987Z,13.80
2019-03-06T01:53:15.686Z,9.83
2019-03-06T01:55:47.417Z,20.83
2019-03-06T01:58:19.142Z,14.53
2019-03-06T02:00:50.803Z,15.00
2019-03-06T02:03:23.634Z,15.20
2019-03-06T02:05:55.360Z,18.97
2019-03-06T02:08:27.077Z,15.90
2019-03-06T02:10:58.738Z,12.43
2019-03-06T02:13:30.454Z,13.73
2019-03-06T02:16:02.160Z,13.20
2019-03-06T02:18:33.879Z,12.87
2019-03-06T02:21:05.746Z,13.33
2019-03-06T02:23:37.658Z,21.93
2019-03-06T02:26:09.404Z,25.13
2019-03-06T02:28:41.127Z,14.17
2019-03-06T02:31:12.921Z,15.57
2019-03-06T02:33:44.714Z,21.47
2019-03-06T02:36:16.519Z,10.57
2019-03-06T02:38:48.155Z,10.73
2019-03-06T02:41:19.899Z,13.97
2019-03-06T02:43:51.664Z,13.50
2019-03-06T02:46:24.286Z,11.47
2019-03-06T02:48:55.992Z,18.83
2019-03-06T02:51:27.672Z,24.93
2019-03-06T02:53:59.484Z,16.33
2019-03-06T02:56:31.363Z,14.47
2019-03-06T02:59:11.034Z,32.03
2019-03-06T03:02:04.536Z,17.23
2019-03-06T03:04:50.875Z,14.13
2019-03-06T03:07:22.699Z,13.23
2019-03-06T03:09:54.484Z,15.07
2019-03-06T03:12:26.207Z,20.77
2019-03-06T03:14:57.932Z,24.47
2019-03-06T03:17:29.592Z,15.43
2019-03-06T03:20:01.377Z,19.43
2019-03-06T03:22:34.511Z,20.37
2019-03-06T03:25:06.638Z,17.67
2019-03-06T03:27:38.298Z,17.93
2019-03-06T03:30:12.545Z,19.20
2019-03-06T03:32:44.332Z,14.93
2019-03-06T03:35:16.130Z,17.00
2019-03-06T03:37:47.780Z,15.60
2019-03-06T03:40:19.441Z,13.70
2019-03-06T03:42:51.196Z,16.73
2019-03-06T03:45:22.948Z,17.23
2019-03-06T03:47:55.648Z,14.07
2019-03-06T03:50:28.636Z,16.30
2019-03-06T03:53:00.394Z,15.10
2019-03-06T03:55:32.041Z,10.80
2019-03-06T03:58:03.893Z,13.03
2019-03-06T04:00:35.755Z,17.30
2019-03-06T04:03:07.960Z,12.80
2019-03-06T04:05:39.683Z,14.30
2019-03-06T04:08:11.355Z,17.30
2019-03-06T04:10:42.998Z,17.90
2019-03-06T04:13:14.641Z,13.90
2019-03-06T04:15:46.255Z,13.00
2019-03-06T04:18:17.950Z,17.07
2019-03-06T04:20:49.569Z,15.03
2019-03-06T04:23:21.534Z,18.53
2019-03-06T04:25:53.229Z,14.80
2019-03-06T04:28:24.901Z,14.80
2019-03-06T04:30:56.488Z,14.67
2019-03-06T04:33:28.184Z,15.63
2019-03-06T04:35:59.836Z,15.53
2019-03-06T04:38:31.542Z,17.30
2019-03-06T04:41:03.149Z,17.73
2019-03-06T04:43:34.780Z,28.13
2019-03-06T04:46:06.386Z,18.37
2019-03-06T04:48:38.175Z,20.63
2019-03-06T04:51:09.759Z,19.10
2019-03-06T04:53:41.426Z,24.17
2019-03-06T04:56:13.160Z,26.40
2019-03-06T04:58:44.766Z,13.93
2019-03-06T05:01:16.364Z,32.97
2019-03-06T05:03:48.058Z,70.73
2019-03-06T05:06:19.806Z,24.47
2019-03-06T05:08:51.424Z,38.53
2019-03-06T05:11:23.013Z,32.50
2019-03-06T05:13:54.629Z,30.27
2019-03-06T05:16:44.175Z,48.50
2019-03-06T05:19:15.879Z,37.37
2019-03-06T05:21:47.559Z,48.20
2019-03-06T05:24:19.242Z,29.77
2019-03-06T05:26:50.857Z,20.73
2019-03-06T05:29:22.505Z,29.93
2019-03-06T05:32:30.757Z,41.90
2019-03-06T05:35:05.116Z,85.00
2019-03-06T05:38:15.142Z,77.57
2019-03-06T05:40:46.730Z,81.83
2019-03-06T05:43:18.399Z,73.13
2019-03-06T05:45:50.408Z,47.53
2019-03-06T05:48:22.025Z,34.73
2019-03-06T05:50:53.623Z,21.17
2019-03-06T05:53:25.290Z,34.77
2019-03-06T05:55:57.162Z,22.43
2019-03-06T05:58:28.744Z,14.37
2019-03-06T06:01:00.422Z,14.60
2019-03-06T06:03:32.087Z,19.40
2019-03-06T06:06:04.118Z,16.93
2019-03-06T06:08:35.741Z,18.17
2019-03-06T06:11:07.640Z,27.27
2019-03-06T06:13:39.243Z,24.40
2019-03-06T06:16:10.855Z,25.27
2019-03-06T06:18:42.475Z,33.30
2019-03-06T06:21:32.517Z,29.60
2019-03-06T06:24:13.718Z,22.77
2019-03-06T06:26:45.328Z,25.77
2019-03-06T06:29:17.003Z,20.20
2019-03-06T06:31:48.609Z,20.00
2019-03-06T06:34:20.489Z,20.27
2019-03-06T06:36:52.099Z,21.37
2019-03-06T06:39:23.769Z,19.27
2019-03-06T06:41:55.426Z,37.90
2019-03-06T06:44:27.605Z,80.07
2019-03-06T06:46:59.415Z,54.13
2019-03-06T06:49:31.072Z,38.03
2019-03-06T06:52:23.097Z,33.30
2019-03-06T06:55:05.769Z,20.40
2019-03-06T06:58:15.010Z,23.20
2019-03-06T07:01:19.705Z,20.20
2019-03-06T07:04:42.226Z,25.83
2019-03-06T07:07:50.743Z,21.67
2019-03-06T07:10:39.948Z,17.63
2019-03-06T07:13:34.771Z,24.67
2019-03-06T07:16:43.509Z,18.83
2019-03-06T07:19:34.036Z,25.20
2019-03-06T07:22:20.331Z,29.80
2019-03-06T07:24:59.707Z,32.60
2019-03-06T07:27:59.195Z,19.50
2019-03-06T07:30:39.592Z,18.37
2019-03-06T07:33:42.336Z,26.07
2019-03-06T08:01:35.533Z,32.63
2019-03-06T08:04:11.986Z,37.87
2019-03-06T08:06:47.583Z,168.60
2019-03-06T08:09:20.672Z,28.67
2019-03-06T08:12:14.287Z,29.97
2019-03-06T08:14:54.849Z,21.80
2019-03-06T08:17:42.552Z,17.00
2019-03-06T08:20:45.243Z,21.63
2019-03-06T08:23:23.175Z,16.50
2019-03-06T08:25:54.849Z,20.30
2019-03-06T08:28:26.511Z,23.77
2019-03-06T08:31:10.167Z,21.17
2019-03-06T08:33:41.833Z,19.37
2019-03-06T08:36:13.505Z,25.47
2019-03-06T08:38:45.180Z,20.37
2019-03-06T08:41:16.807Z,21.27
2019-03-06T08:43:48.498Z,20.70
2019-03-06T08:46:40.111Z,21.40
2019-03-06T08:49:43.660Z,18.27
2019-03-06T08:52:21.419Z,20.70
2019-03-06T08:55:15.737Z,19.43
2019-03-06T08:58:15.495Z,21.83
2019-03-06T09:00:59.261Z,28.80
2019-03-06T09:03:46.153Z,22.27
2019-03-06T09:06:32.914Z,21.57
2019-03-06T09:09:25.452Z,19.30
2019-03-06T09:12:15.231Z,25.13
2019-03-06T09:15:11.879Z,20.80
2019-03-06T09:18:08.872Z,21.70
2019-03-06T09:21:08.468Z,20.93
2019-03-06T09:23:57.506Z,21.13
2019-03-06T09:26:48.024Z,29.10
2019-03-06T09:29:41.670Z,23.63
2019-03-06T09:32:32.450Z,22.17
2019-03-06T09:35:23.311Z,30.00
2019-03-06T09:38:12.584Z,24.47
2019-03-06T09:41:05.873Z,24.87
2019-03-06T09:43:56.439Z,30.00
2019-03-06T09:46:45.609Z,29.83
2019-03-06T09:49:46.754Z,28.70
2019-03-06T09:52:52.714Z,28.27
2019-03-06T09:55:43.425Z,26.30
2019-03-06T09:58:43.075Z,32.93
2019-03-06T10:01:32.263Z,31.17
2019-03-06T10:04:23.300Z,30.37
2019-03-06T10:07:12.439Z,33.53
2019-03-06T10:10:08.880Z,33.20
2019-03-06T10:12:54.822Z,36.93
2019-03-06T10:15:37.136Z,41.07
2019-03-06T10:18:31.980Z,36.50
2019-03-06T10:21:04.780Z,37.40
2019-03-06T10:23:36.478Z,35.60
2019-03-06T10:26:08.153Z,31.47
2019-03-06T10:28:42.901Z,31.50
2019-03-06T10:31:16.907Z,27.37
2019-03-06T10:33:50.692Z,27.77
2019-03-06T10:36:24.980Z,26.07
2019-03-06T10:38:58.283Z,28.77
2019-03-06T10:41:32.243Z,32.43
2019-03-06T10:44:07.604Z,30.17
2019-03-06T10:46:42.644Z,30.10
2019-03-06T10:49:16.607Z,26.13
2019-03-06T10:51:48.721Z,26.33
2019-03-06T10:54:23.080Z,23.83
2019-03-06T10:56:56.809Z,23.77
2019-03-06T10:59:28.879Z,26.03
2019-03-06T11:02:00.649Z,28.27
2019-03-06T11:05:03.667Z,22.80
2019-03-06T11:07:35.339Z,27.07
2019-03-06T11:10:08.151Z,27.43
2019-03-06T11:12:40.908Z,33.33
2019-03-06T11:15:12.702Z,27.43
2019-03-06T11:17:44.655Z,28.67
2019-03-06T11:20:19.011Z,26.10
2019-03-06T11:22:51.698Z,29.70
2019-03-06T11:25:23.744Z,30.37
2019-03-06T11:27:55.602Z,22.77
2019-03-06T11:30:33.330Z,21.73
2019-03-06T11:33:05.834Z,24.33
2019-03-06T11:35:37.673Z,23.50
2019-03-06T11:38:09.711Z,20.10
2019-03-06T11:40:42.453Z,23.37
2019-03-06T11:43:15.649Z,20.83
2019-03-06T11:45:47.345Z,27.27
2019-03-06T11:48:19.109Z,24.20
2019-03-06T11:50:51.000Z,23.60
2019-03-06T11:53:22.693Z,24.77
2019-03-06T11:55:54.539Z,22.13
2019-03-06T11:58:26.466Z,20.67
2019-03-06T12:00:58.158Z,23.13
2019-03-06T12:03:30.123Z,22.73
2019-03-06T12:06:01.896Z,22.73
2019-03-06T12:08:33.584Z,24.47
2019-03-06T12:11:05.288Z,22.10
2019-03-06T12:13:37.142Z,23.27
2019-03-06T12:16:10.009Z,24.47
2019-03-06T12:18:41.781Z,22.03
2019-03-06T12:21:13.466Z,21.93
2019-03-06T12:23:45.553Z,19.97
2019-03-06T12:26:17.311Z,35.77
2019-03-06T12:28:49.284Z,20.73
2019-03-06T12:31:21.378Z,17.50
2019-03-06T12:33:53.350Z,16.97
2019-03-06T12:36:25.111Z,22.63
2019-03-06T12:38:56.794Z,17.43
2019-03-06T12:41:28.435Z,22.00
2019-03-06T12:44:00.123Z,22.60
2019-03-06T12:46:32.411Z,18.30
2019-03-06T12:49:09.096Z,15.77
2019-03-06T12:51:41.202Z,17.23
2019-03-06T12:54:12.886Z,17.17
2019-03-06T12:56:44.505Z,17.10
2019-03-06T12:59:16.180Z,14.13
2019-03-06T13:01:48.089Z,17.13
2019-03-06T13:04:20.750Z,17.07
2019-03-06T13:06:52.725Z,20.63
2019-03-06T13:09:24.557Z,21.27
2019-03-06T13:11:56.494Z,17.47
2019-03-06T13:14:30.466Z,17.37
2019-03-06T13:17:01.748Z,13.67
2019-03-06T13:19:33.412Z,12.87
2019-03-06T13:22:11.067Z,14.43
2019-03-06T13:24:38.402Z,14.40
2019-03-06T13:27:10.031Z,16.50
2019-03-06T13:29:41.834Z,23.77
2019-03-06T13:32:13.564Z,34.80
2019-03-06T13:34:52.487Z,18.93
2019-03-06T13:37:24.574Z,15.60
2019-03-06T13:39:56.486Z,19.37
2019-03-06T13:42:28.207Z,22.30
2019-03-06T13:44:59.811Z,21.53
2019-03-06T13:48:42.613Z,20.13
2019-03-06T13:51:15.194Z,27.70
2019-03-06T13:53:46.912Z,21.80
2019-03-06T13:56:18.590Z,20.03
2019-03-06T13:58:50.273Z,17.50
2019-03-06T14:01:22.026Z,21.00
2019-03-06T14:03:53.901Z,19.73
2019-03-06T14:06:25.585Z,20.00
2019-03-06T14:08:57.266Z,20.27
2019-03-06T14:11:28.978Z,28.60
2019-03-06T14:14:00.672Z,18.73
2019-03-06T14:16:32.550Z,18.63
2019-03-06T14:19:04.160Z,27.97
2019-03-06T14:21:35.855Z,27.83
2019-03-06T14:24:07.543Z,27.40
2019-03-06T14:26:40.516Z,18.70
2019-03-06T14:29:12.149Z,31.03
2019-03-06T14:31:43.772Z,22.00
2019-03-06T14:34:15.459Z,18.47
2019-03-06T14:36:47.165Z,21.47
2019-03-06T14:39:30.034Z,22.47
2019-03-06T14:42:01.658Z,19.10
2019-03-06T14:44:33.432Z,20.87
2019-03-06T14:47:05.038Z,29.70
2019-03-06T14:49:36.915Z,27.13
2019-03-06T14:52:08.594Z,20.57
2019-03-06T14:54:40.234Z,19.83
2019-03-06T14:57:11.847Z,27.13
2019-03-06T14:59:43.538Z,29.73
2019-03-06T15:02:15.313Z,19.57
2019-03-06T15:04:47.007Z,20.83
2019-03-06T15:07:18.685Z,28.87
2019-03-06T15:31:51.854Z,36.23
2019-03-06T15:34:23.462Z,29.67
2019-03-06T15:36:55.147Z,26.27
2019-03-06T15:39:42.552Z,45.53
2019-03-06T15:42:11.850Z,26.33
2019-03-06T15:44:43.778Z,28.43
2019-03-06T15:47:15.631Z,25.40
2019-03-06T15:49:47.523Z,40.27
2019-03-06T15:52:19.127Z,17.77
2019-03-06T15:54:52.699Z,34.97
2019-03-06T15:57:24.477Z,22.20
2019-03-06T15:59:56.100Z,21.13
2019-03-06T16:02:28.129Z,37.93
2019-03-06T16:04:59.819Z,33.50
2019-03-06T16:07:31.432Z,39.43
2019-03-06T16:10:03.037Z,101.60
2019-03-06T16:12:34.808Z,30.57
2019-03-06T16:15:06.557Z,157.10
2019-03-06T16:17:38.322Z,178.60
2019-03-06T16:20:14.399Z,113.53
2019-03-06T16:22:46.124Z,90.83
2019-03-06T16:25:17.872Z,72.00
2019-03-06T16:27:49.485Z,204.53
2019-03-06T16:30:21.108Z,102.53
2019-03-06T16:32:52.747Z,57.57
2019-03-06T16:35:24.505Z,94.97
2019-03-06T16:37:56.109Z,71.90
2019-03-06T16:40:30.556Z,102.13
2019-03-06T16:43:02.435Z,110.83
2019-03-06T16:45:34.042Z,97.80
2019-03-06T16:48:05.879Z,90.53
2019-03-06T16:50:37.569Z,109.43
2019-03-06T16:53:09.549Z,423.63
2019-03-06T16:55:41.530Z,141.20
2019-03-06T16:58:13.150Z,98.70
2019-03-06T17:00:44.834Z,75.00
2019-03-06T17:03:16.602Z,101.47
2019-03-06T17:05:48.288Z,53.47
2019-03-06T17:08:19.985Z,76.03
2019-03-06T17:10:51.598Z,125.47
2019-03-06T17:13:23.213Z,122.07
2019-03-06T17:15:54.903Z,100.63
2019-03-06T17:18:26.687Z,108.30
2019-03-06T17:21:00.581Z,143.47
2019-03-06T17:23:36.324Z,97.87
2019-03-06T17:26:13.568Z,122.83
2019-03-06T17:28:47.403Z,154.60
2019-03-06T17:31:22.334Z,160.17
2019-03-06T17:33:56.728Z,152.33
2019-03-06T17:36:28.912Z,260.57
2019-03-06T17:39:02.225Z,344.97
2019-03-06T17:41:37.827Z,252.97
2019-03-06T17:44:11.195Z,126.27
2019-03-06T17:46:43.874Z,113.53
2019-03-06T17:49:17.936Z,104.77
2019-03-06T17:51:52.961Z,562.93
2019-03-06T17:54:25.060Z,80.53
2019-03-06T17:56:57.267Z,78.47
2019-03-06T17:59:30.281Z,66.50
2019-03-06T18:02:02.470Z,64.47
2019-03-06T18:04:34.136Z,68.70
2019-03-06T18:07:06.286Z,77.63
2019-03-06T18:09:38.328Z,71.87
2019-03-06T18:12:10.329Z,75.87
2019-03-06T18:14:42.503Z,86.63
2019-03-06T18:17:14.483Z,111.13
2019-03-06T18:19:46.610Z,159.80
2019-03-06T18:22:18.623Z,97.67
2019-03-06T18:24:51.154Z,83.53
2019-03-06T18:27:26.601Z,160.10
2019-03-06T18:30:00.469Z,146.87
2019-03-06T18:32:34.594Z,123.70
2019-03-06T18:35:07.358Z,124.23
2019-03-06T18:37:40.587Z,109.73
2019-03-06T18:40:16.685Z,99.80
2019-03-06T18:42:51.096Z,91.00
2019-03-06T18:45:25.909Z,65.73
2019-03-06T18:47:58.333Z,105.77
2019-03-06T18:50:30.355Z,140.90
2019-03-06T18:53:02.175Z,172.00
2019-03-06T18:55:35.531Z,324.33
2019-03-06T18:58:08.397Z,560.17
2019-03-06T19:00:41.699Z,237.60
2019-03-06T19:03:16.499Z,123.40
2019-03-06T19:05:50.725Z,141.67
2019-03-06T19:08:31.035Z,71.37
2019-03-06T19:11:00.894Z,116.03
2019-03-06T19:17:23.425Z,47.50
2019-03-06T19:19:56.190Z,85.03
2019-03-06T19:22:31.122Z,41.13
2019-03-06T19:25:03.383Z,51.30
2019-03-06T19:27:35.100Z,49.73
2019-03-06T19:30:14.417Z,52.17
2019-03-06T19:32:46.434Z,59.73
2019-03-06T19:35:19.611Z,57.57
2019-03-06T19:37:51.732Z,49.33
2019-03-06T19:40:23.583Z,52.80
2019-03-06T19:42:55.450Z,51.37
2019-03-06T19:45:27.292Z,76.90
2019-03-06T19:47:59.223Z,71.07
2019-03-06T19:50:30.977Z,76.27
2019-03-06T19:53:02.805Z,63.60
2019-03-06T19:55:34.480Z,71.07
2019-03-06T19:58:07.436Z,67.03
2019-03-06T20:00:39.176Z,62.27
2019-03-06T20:03:11.098Z,71.77
2019-03-06T20:05:43.278Z,54.83
2019-03-06T20:08:17.303Z,42.67
2019-03-06T20:10:49.899Z,43.03
2019-03-06T20:13:21.810Z,39.20
2019-03-06T20:15:53.555Z,58.13
2019-03-06T20:18:25.445Z,41.37
2019-03-06T20:20:57.269Z,34.50
2019-03-06T20:23:29.113Z,39.60
2019-03-06T20:26:00.894Z,30.33
2019-03-06T20:28:32.862Z,33.53
2019-03-06T20:31:04.841Z,41.23
2019-03-06T20:33:36.643Z,33.60
2019-03-06T20:36:08.525Z,37.70
2019-03-06T20:38:41.045Z,32.57
2019-03-06T20:41:13.132Z,35.17
2019-03-06T20:43:45.417Z,28.33
2019-03-06T20:46:17.121Z,27.13
2019-03-06T20:48:48.960Z,33.93
2019-03-06T20:51:20.663Z,35.10
2019-03-06T20:53:52.614Z,31.90
2019-03-06T20:56:25.412Z,39.33
2019-03-06T20:58:57.859Z,43.47
2019-03-06T21:01:29.901Z,45.80
2019-03-06T21:04:02.708Z,40.70
2019-03-06T21:06:36.320Z,49.60
2019-03-06T21:09:07.938Z,75.30
2019-03-06T21:11:40.204Z,90.67
2019-03-06T21:14:12.261Z,91.47
2019-03-06T21:16:43.939Z,92.27
2019-03-06T21:19:16.305Z,72.13
2019-03-06T21:21:49.392Z,66.87
2019-03-06T21:24:21.100Z,61.87
2019-03-06T21:26:52.702Z,39.70
2019-03-06T21:29:24.327Z,33.20
2019-03-06T21:31:55.921Z,34.87
2019-03-06T21:34:27.603Z,32.80
2019-03-06T21:36:59.361Z,36.67
2019-03-06T21:39:30.995Z,36.67
2019-03-06T21:42:02.690Z,35.20
2019-03-06T21:44:34.464Z,30.33
2019-03-06T21:47:06.198Z,28.87
2019-03-06T21:49:37.961Z,23.90
2019-03-06T21:52:09.627Z,24.80
2019-03-06T21:54:41.306Z,30.83
2019-03-06T21:57:14.055Z,29.57
2019-03-06T21:59:45.747Z,24.67
2019-03-06T22:02:17.443Z,26.63
2019-03-06T22:04:49.229Z,23.13
2019-03-06T22:07:20.953Z,24.10
2019-03-06T22:09:52.744Z,28.47
2019-03-06T22:12:24.413Z,31.73
2019-03-06T22:14:56.181Z,41.30
2019-03-06T22:17:27.780Z,52.17
2019-03-06T22:19:59.463Z,44.20
2019-03-06T22:22:31.169Z,43.60
2019-03-06T22:25:02.895Z,46.60
2019-03-06T22:27:34.740Z,49.10
2019-03-06T22:30:07.533Z,53.30
2019-03-06T22:32:39.197Z,56.50
2019-03-06T22:35:10.926Z,84.57
2019-03-06T22:37:42.880Z,61.57
2019-03-06T22:40:15.422Z,99.43
2019-03-06T22:42:47.026Z,66.50
2019-03-06T22:45:18.747Z,62.00
2019-03-06T22:47:50.488Z,104.13
2019-03-06T22:50:22.231Z,214.10
2019-03-06T22:52:54.077Z,33.63
2019-03-06T22:55:25.674Z,50.87
2019-03-06T22:57:57.265Z,108.73
2019-03-06T23:00:49.051Z,78.73
2019-03-06T23:03:21.329Z,30.03
2019-03-06T23:05:52.983Z,22.83
2019-03-06T23:08:24.650Z,26.47
2019-03-06T23:10:56.302Z,68.50
2019-03-06T23:13:28.248Z,36.87
2019-03-06T23:15:59.952Z,19.80
2019-03-06T23:18:31.588Z,20.97
2019-03-06T23:21:03.224Z,49.13
2019-03-06T23:23:34.977Z,23.70
2019-03-06T23:26:06.736Z,29.03
2019-03-06T23:28:38.407Z,29.30
2019-03-06T23:31:10.021Z,26.03
2019-03-06T23:33:41.784Z,24.50
2019-03-06T23:36:13.685Z,35.23
2019-03-06T23:38:45.585Z,35.93
2019-03-06T23:41:17.264Z,28.23
2019-03-06T23:43:48.928Z,59.97
2019-03-06T23:46:20.545Z,29.80
2019-03-06T23:48:52.496Z,35.73
2019-03-06T23:51:37.917Z,35.33
2019-03-06T23:54:09.528Z,26.47
2019-03-06T23:56:41.205Z,24.27
2019-03-06T23:59:12.861Z,21.03
